KCAE/CAE METAR and TAF weather

Enter ICAO airport designator
Station Type Date Time Source
KCAE METAR 2019/06/16 05:56 UTC NOAA

KCAE 160556Z 00000KT 10SM CLR 21/17 A3008 RMK AO2 SLP182 T02110167 10272 20194 58009


Station Type Date Time Source
KCAE Decoded METAR 2019/06/16 05:56 UTC NOAA

COLUMBIA METROPOLITAN AIRPORT , SC, United States (KCAE) 33-57N 081-07W 73M
Jun 16, 2019 - 01:56 AM EDT / 2019.06.16 0556 UTC
Wind: Calm:0
Visibility: 10 mile(s):0
Sky conditions: clear
Temperature: 70.0 F (21.1 C)
Dew Point: 62.1 F (16.7 C)
Relative Humidity: 75%
Pressure (altimeter): 30.08 in. Hg (1018 hPa)
Pressure tendency: 0.03 inches (0.9 hPa) lower than three hours ago
ob: KCAE 160556Z 00000KT 10SM CLR 21/17 A3008 RMK AO2 SLP182 T02110167 10272 20194 58009
cycle: 6

Station Type Date Time Source
KCAE TAF 2019/06/16 06:42 UTC NOAA

TAF KCAE 160540Z 1606/1706 VRB03KT P6SM SCT200
TEMPO 1610/1612 BKN015
FM161400 22009KT P6SM SCT050
FM170000 19004KT P6SM SCT050

Example: see airport list